Time;durP1;ratioP1;P1;durP2;ratioP2;P2;SDS_P1;SDS_P2;PMS_P1;PMS_P2;Temp;Humidity;BMP_temperature;BMP_pressure;BME280_temperature;BME280_humidity;BME280_pressure;Samples;Min_cycle;Max_cycle;Signal;HPM_P1;HPM_P2
2023/03/31 00:01:42;;;;;;;7.20;2.13;;;;;;;11.11;92.83;99723.72;5048227;28;20202;-84
2023/03/31 00:04:11;;;;;;;4.43;2.10;;;;;;;11.10;92.64;99720.25;5051808;28;20231;-83
2023/03/31 00:06:40;;;;;;;7.13;1.60;;;;;;;11.11;92.33;99724.56;5049031;28;20217;-84
2023/03/31 00:09:09;;;;;;;7.13;2.30;;;;;;;11.11;92.00;99727.25;5051399;28;20211;-83
2023/03/31 00:11:36;;;;;;;6.10;1.50;;;;;;;11.13;91.62;99719.13;5050327;28;20202;-83
2023/03/31 00:14:05;;;;;;;4.17;1.60;;;;;;;11.16;91.23;99724.22;5047963;28;20217;-84
2023/03/31 00:16:33;;;;;;;3.50;1.50;;;;;;;11.14;90.95;99716.34;5050918;28;20202;-82
2023/03/31 00:19:00;;;;;;;4.27;1.70;;;;;;;11.17;90.51;99717.91;5052176;28;20203;-84
2023/03/31 00:21:32;;;;;;;7.20;2.07;;;;;;;11.18;90.25;99708.09;5050421;28;20239;-83
2023/03/31 00:24:01;;;;;;;6.70;1.80;;;;;;;11.18;89.97;99710.75;5048248;28;20260;-83
2023/03/31 00:26:28;;;;;;;3.77;1.30;;;;;;;11.18;89.46;99706.28;5045920;28;20670;-83
2023/03/31 00:28:55;;;;;;;6.90;1.20;;;;;;;11.19;89.13;99701.81;5052380;28;20203;-83
2023/03/31 00:31:23;;;;;;;6.13;1.50;;;;;;;11.18;88.87;99695.63;5052611;28;20205;-84
2023/03/31 00:33:51;;;;;;;4.23;1.30;;;;;;;11.20;88.48;99700.84;5048340;28;20219;-84
2023/03/31 00:36:20;;;;;;;3.00;1.40;;;;;;;11.21;88.06;99694.53;5050586;28;20211;-84
2023/03/31 00:38:47;;;;;;;4.63;1.40;;;;;;;11.19;87.81;99684.00;5051470;28;20218;-83
2023/03/31 00:41:13;;;;;;;3.37;1.13;;;;;;;11.19;87.13;99696.47;5051427;28;20203;-84
2023/03/31 00:43:41;;;;;;;6.03;1.43;;;;;;;11.17;87.14;99679.75;5049783;28;20246;-84
2023/03/31 00:46:16;;;;;;;4.33;1.90;;;;;;;11.17;86.38;99677.09;5048736;28;20208;-84
2023/03/31 00:48:48;;;;;;;6.07;1.50;;;;;;;11.13;86.57;99680.00;5053365;28;20225;-83
2023/03/31 00:51:16;;;;;;;5.33;1.63;;;;;;;11.13;86.26;99673.81;5049372;28;20206;-83
2023/03/31 00:53:43;;;;;;;3.03;1.30;;;;;;;11.12;86.18;99669.47;5054513;28;20228;-84
2023/03/31 00:56:14;;;;;;;3.73;1.40;;;;;;;11.11;86.18;99665.94;5050244;28;20245;-84
2023/03/31 00:58:43;;;;;;;4.43;2.00;;;;;;;11.12;86.22;99664.97;5055597;28;20205;-84
2023/03/31 01:01:14;;;;;;;3.63;1.10;;;;;;;11.13;85.71;99652.50;5051260;28;20267;-84
2023/03/31 01:03:45;;;;;;;3.50;1.37;;;;;;;11.16;85.35;99649.59;5052036;28;20283;-83
2023/03/31 01:06:13;;;;;;;4.93;1.17;;;;;;;11.17;85.23;99645.97;5048552;28;20597;-83
2023/03/31 01:08:41;;;;;;;4.87;1.33;;;;;;;11.17;85.03;99642.44;5047115;28;20290;-83
2023/03/31 01:11:11;;;;;;;4.83;1.20;;;;;;;11.19;85.00;99632.50;5045050;28;20207;-83
2023/03/31 01:13:39;;;;;;;4.70;1.50;;;;;;;11.19;84.81;99632.50;5049326;28;20227;-83
2023/03/31 01:16:06;;;;;;;4.63;1.30;;;;;;;11.19;84.50;99621.84;5051335;28;20210;-83
2023/03/31 01:18:34;;;;;;;3.20;1.03;;;;;;;11.20;84.16;99623.53;5048004;28;20214;-83
2023/03/31 01:21:40;;;;;;;4.23;1.13;;;;;;;11.22;84.19;99632.25;5047955;28;20199;-84
2023/03/31 01:24:46;;;;;;;4.23;1.43;;;;;;;11.21;84.22;99614.59;5048270;28;20240;-83
2023/03/31 01:27:43;;;;;;;3.83;1.03;;;;;;;11.20;83.92;99624.41;5041907;28;20202;-84
2023/03/31 01:30:40;;;;;;;5.13;1.70;;;;;;;11.20;83.79;99618.22;5047924;28;20225;-84
2023/03/31 01:33:46;;;;;;;4.20;1.10;;;;;;;11.21;83.48;99601.25;5026408;28;20706;-83
2023/03/31 01:36:37;;;;;;;4.33;1.50;;;;;;;11.21;83.87;99604.78;5048556;28;20202;-83
2023/03/31 01:39:27;;;;;;;4.00;1.00;;;;;;;11.22;83.79;99602.94;5047998;28;20584;-83
2023/03/31 01:42:01;;;;;;;3.97;1.10;;;;;;;11.19;83.84;99600.53;5044255;28;20194;-84
2023/03/31 01:44:39;;;;;;;4.80;1.17;;;;;;;11.18;83.66;99593.50;5053357;28;20793;-83
2023/03/31 01:47:11;;;;;;;2.10;1.17;;;;;;;11.16;83.45;99592.78;5045422;28;20201;-84
2023/03/31 01:49:43;;;;;;;3.93;1.10;;;;;;;11.13;83.51;99585.88;5046930;28;20198;-83
2023/03/31 01:52:20;;;;;;;4.40;1.30;;;;;;;11.11;83.44;99578.00;5049943;28;20198;-83
2023/03/31 01:54:52;;;;;;;3.53;1.10;;;;;;;11.09;83.34;99580.00;5050698;28;20244;-83
2023/03/31 01:57:24;;;;;;;2.97;1.00;;;;;;;11.09;83.35;99571.16;5048003;28;20205;-84
2023/03/31 01:59:59;;;;;;;2.60;1.10;;;;;;;11.05;83.42;99577.69;5046911;28;20571;-83
2023/03/31 02:02:29;;;;;;;6.23;1.17;;;;;;;11.02;83.25;99570.78;5049094;28;20234;-83
2023/03/31 02:04:59;;;;;;;2.57;1.07;;;;;;;11.02;83.31;99572.59;5049889;28;20226;-84
2023/03/31 02:07:31;;;;;;;4.23;1.10;;;;;;;11.01;83.26;99562.94;5049675;28;20588;-84
2023/03/31 02:10:02;;;;;;;5.03;1.43;;;;;;;11.00;83.16;99550.56;5050197;28;20209;-83
2023/03/31 02:12:33;;;;;;;2.77;0.97;;;;;;;10.98;83.20;99553.38;5049639;28;20203;-83
2023/03/31 02:15:03;;;;;;;3.50;1.20;;;;;;;10.97;83.21;99554.34;5046030;28;20669;-84
2023/03/31 02:17:31;;;;;;;6.27;1.93;;;;;;;10.94;83.43;99556.41;5051937;28;20237;-83
2023/03/31 02:20:01;;;;;;;2.40;0.90;;;;;;;10.91;83.65;99549.53;5044039;28;20297;-83
2023/03/31 02:22:33;;;;;;;3.93;0.90;;;;;;;10.90;83.80;99552.31;5050896;28;20215;-83
2023/03/31 02:25:02;;;;;;;2.87;1.13;;;;;;;10.90;83.85;99544.31;5040407;28;20257;-83
2023/03/31 02:27:33;;;;;;;3.13;1.10;;;;;;;10.88;84.03;99532.94;5047572;28;20206;-83
2023/03/31 02:29:59;;;;;;;3.33;1.00;;;;;;;10.85;84.22;99533.19;5050992;28;20208;-84
2023/03/31 02:32:32;;;;;;;3.97;1.07;;;;;;;10.84;84.00;99527.03;5049860;28;20710;-83
2023/03/31 02:34:59;;;;;;;2.97;0.83;;;;;;;10.82;84.31;99528.97;5044270;28;20214;-84
2023/03/31 02:37:27;;;;;;;4.93;1.00;;;;;;;10.83;84.19;99528.00;5045299;28;20293;-84
2023/03/31 02:39:56;;;;;;;4.17;1.03;;;;;;;10.82;84.15;99518.31;5044733;28;20213;-84
2023/03/31 02:42:24;;;;;;;2.93;0.93;;;;;;;10.79;84.20;99513.22;5044131;28;20211;-83
2023/03/31 02:44:52;;;;;;;3.07;1.00;;;;;;;10.78;84.47;99512.38;5048585;28;20229;-83
2023/03/31 02:47:21;;;;;;;3.70;1.30;;;;;;;10.77;84.51;99512.50;5049809;28;20210;-82
2023/03/31 02:49:51;;;;;;;2.73;0.90;;;;;;;10.76;84.66;99505.47;5043899;28;20206;-84
2023/03/31 02:52:30;;;;;;;4.77;0.90;;;;;;;10.77;84.62;99509.84;5050307;28;20207;-83
2023/03/31 02:55:18;;;;;;;2.87;1.07;;;;;;;10.76;84.66;99494.81;5053158;28;20198;-84
2023/03/31 02:58:18;;;;;;;4.17;1.10;;;;;;;10.75;84.76;99491.31;5047832;28;21400;-83
2023/03/31 03:01:01;;;;;;;3.83;1.00;;;;;;;10.74;84.59;99500.31;5049119;28;20209;-84
2023/03/31 03:03:41;;;;;;;2.97;1.30;;;;;;;10.73;84.70;99489.78;5052666;28;20249;-83
2023/03/31 03:06:21;;;;;;;1.67;0.87;;;;;;;10.71;84.41;99481.06;5051587;28;20629;-82
2023/03/31 03:09:03;;;;;;;4.73;0.97;;;;;;;10.70;84.69;99488.22;5052548;28;20224;-84
2023/03/31 03:11:42;;;;;;;5.03;1.00;;;;;;;10.70;84.84;99482.03;5046649;28;20201;-84
2023/03/31 03:14:17;;;;;;;3.00;0.90;;;;;;;10.69;84.69;99480.34;5054262;28;20261;-82
2023/03/31 03:16:48;;;;;;;2.10;0.93;;;;;;;10.68;84.80;99482.16;5052655;28;20198;-82
2023/03/31 03:19:19;;;;;;;7.20;1.20;;;;;;;10.70;84.62;99482.03;5049840;28;20602;-82
2023/03/31 03:21:46;;;;;;;5.30;0.90;;;;;;;10.70;84.45;99474.06;5056827;28;20202;-83
2023/03/31 03:24:13;;;;;;;4.03;1.00;;;;;;;10.69;84.36;99461.72;5052671;28;20249;-82
2023/03/31 03:26:40;;;;;;;3.87;1.00;;;;;;;10.70;84.16;99461.59;5052444;28;20209;-82
2023/03/31 03:29:07;;;;;;;5.10;1.43;;;;;;;10.69;84.19;99461.72;5052984;28;21771;-83
2023/03/31 03:31:33;;;;;;;3.77;1.10;;;;;;;10.64;84.14;99456.75;5050279;28;20295;-82
2023/03/31 03:34:02;;;;;;;2.83;0.83;;;;;;;10.64;84.29;99453.25;5051011;28;20697;-83
2023/03/31 03:36:28;;;;;;;2.60;0.80;;;;;;;10.63;84.21;99443.56;5052367;28;20206;-82
2023/03/31 03:38:55;;;;;;;3.47;0.70;;;;;;;10.63;84.16;99436.41;5055934;28;20213;-82
2023/03/31 03:41:21;;;;;;;2.83;1.03;;;;;;;10.61;84.08;99434.84;5050188;28;20207;-82
2023/03/31 03:43:48;;;;;;;1.63;1.03;;;;;;;10.60;84.43;99434.00;5051065;28;20312;-82
2023/03/31 03:46:14;;;;;;;2.80;0.80;;;;;;;10.59;84.32;99423.47;5052541;28;20208;-82
2023/03/31 03:48:40;;;;;;;6.27;1.00;;;;;;;10.58;84.29;99416.47;5052800;28;20197;-83
2023/03/31 03:51:08;;;;;;;4.13;0.87;;;;;;;10.56;84.52;99418.44;5051626;28;20216;-82
2023/03/31 03:53:35;;;;;;;4.03;1.20;;;;;;;10.53;84.31;99408.88;5049647;28;20227;-82
2023/03/31 03:56:01;;;;;;;2.63;0.90;;;;;;;10.53;84.47;99405.38;5052318;28;20282;-82
2023/03/31 03:58:28;;;;;;;4.20;1.30;;;;;;;10.51;84.98;99399.34;5053366;28;20201;-82
2023/03/31 04:00:55;;;;;;;2.67;0.90;;;;;;;10.50;84.53;99394.97;5053363;28;20198;-82
2023/03/31 04:03:22;;;;;;;4.93;1.03;;;;;;;10.48;84.88;99387.13;5052424;28;20285;-82
2023/03/31 04:05:49;;;;;;;4.70;0.97;;;;;;;10.48;85.00;99391.59;5046887;28;20214;-83
2023/03/31 04:08:17;;;;;;;4.33;1.17;;;;;;;10.50;85.07;99389.66;5051581;28;20583;-82
2023/03/31 04:10:44;;;;;;;2.57;0.80;;;;;;;10.46;85.10;99382.88;5046547;28;20210;-82
2023/03/31 04:13:11;;;;;;;2.90;0.90;;;;;;;10.43;85.22;99379.50;5053045;28;20233;-82
2023/03/31 04:15:37;;;;;;;3.47;1.10;;;;;;;10.41;85.04;99370.78;5051757;28;20202;-82
2023/03/31 04:18:04;;;;;;;3.43;0.97;;;;;;;10.40;85.18;99369.09;5052166;28;20206;-82
2023/03/31 04:20:31;;;;;;;3.87;1.07;;;;;;;10.41;85.36;99359.31;5051598;28;20212;-82
2023/03/31 04:22:57;;;;;;;5.80;1.00;;;;;;;10.40;85.00;99352.28;5051249;28;20739;-83
2023/03/31 04:25:25;;;;;;;3.10;1.00;;;;;;;10.37;85.46;99348.09;5052414;28;20684;-83
2023/03/31 04:27:54;;;;;;;1.70;0.70;;;;;;;10.37;85.36;99339.25;5052391;28;20197;-82
2023/03/31 04:30:24;;;;;;;3.80;1.33;;;;;;;10.35;85.37;99333.22;5052713;28;20275;-82
2023/03/31 04:32:52;;;;;;;2.03;0.90;;;;;;;10.34;85.51;99332.38;5056710;28;20760;-83
2023/03/31 04:35:19;;;;;;;4.73;1.10;;;;;;;10.32;85.74;99318.34;5045251;28;20208;-82
2023/03/31 04:37:46;;;;;;;6.03;1.13;;;;;;;10.32;85.62;99309.53;5050387;28;20230;-82
2023/03/31 04:40:13;;;;;;;5.83;1.77;;;;;;;10.32;86.12;99301.53;5049948;28;20206;-82
2023/03/31 04:42:41;;;;;;;2.90;1.47;;;;;;;10.31;86.07;99295.38;5051229;28;20223;-82
2023/03/31 04:45:08;;;;;;;3.13;1.00;;;;;;;10.30;85.85;99287.50;5051919;28;20225;-82
2023/03/31 04:47:35;;;;;;;3.70;1.00;;;;;;;10.29;86.23;99281.34;5052018;28;20221;-82
2023/03/31 04:50:01;;;;;;;3.10;1.00;;;;;;;10.29;86.53;99276.03;5048331;28;20685;-82
2023/03/31 04:52:28;;;;;;;2.87;1.13;;;;;;;10.28;86.29;99282.31;5045264;28;20208;-82
2023/03/31 04:54:54;;;;;;;2.90;0.83;;;;;;;10.29;86.16;99272.53;5049838;28;20225;-82
2023/03/31 04:57:21;;;;;;;4.00;1.40;;;;;;;10.28;86.50;99262.84;5051848;28;20210;-82
2023/03/31 04:59:49;;;;;;;2.57;1.30;;;;;;;10.25;86.23;99263.94;5050764;28;20214;-83
2023/03/31 05:02:22;;;;;;;3.20;1.00;;;;;;;10.24;86.60;99264.91;5050214;28;20775;-83
2023/03/31 05:04:48;;;;;;;2.43;1.00;;;;;;;10.25;86.28;99258.63;5048071;28;20255;-82
2023/03/31 05:07:15;;;;;;;5.43;1.43;;;;;;;10.21;86.22;99256.38;5051043;28;20205;-82
2023/03/31 05:09:41;;;;;;;2.67;1.30;;;;;;;10.20;86.33;99247.53;5051715;28;20208;-83
2023/03/31 05:12:08;;;;;;;2.83;0.83;;;;;;;10.19;86.45;99242.34;5052378;28;20693;-82
2023/03/31 05:14:34;;;;;;;3.73;1.07;;;;;;;10.18;86.95;99235.31;5053301;28;20218;-82
2023/03/31 05:17:02;;;;;;;2.27;1.10;;;;;;;10.17;86.66;99234.47;5050919;28;20217;-83
2023/03/31 05:19:28;;;;;;;2.70;0.90;;;;;;;10.15;87.16;99240.88;5044887;28;20221;-82
2023/03/31 05:21:55;;;;;;;3.53;1.03;;;;;;;10.15;87.49;99244.38;5047121;28;20795;-83
2023/03/31 05:24:22;;;;;;;3.60;1.00;;;;;;;10.14;87.33;99240.03;5047814;28;20230;-82
2023/03/31 05:26:51;;;;;;;5.03;1.43;;;;;;;10.10;87.30;99228.81;5050078;28;21757;-82
2023/03/31 05:29:18;;;;;;;4.80;1.53;;;;;;;10.11;87.55;99227.00;5052403;28;20208;-87
2023/03/31 05:31:44;;;;;;;3.83;1.10;;;;;;;10.13;87.95;99227.69;5054055;28;20697;-86
2023/03/31 05:34:12;;;;;;;3.00;1.10;;;;;;;10.13;87.98;99232.19;5049956;28;20236;-86
2023/03/31 05:36:38;;;;;;;4.20;0.83;;;;;;;10.13;88.20;99233.03;5052911;28;20565;-85
2023/03/31 05:39:06;;;;;;;4.70;1.03;;;;;;;10.14;88.17;99233.88;5042782;28;20202;-86
2023/03/31 05:41:32;;;;;;;3.73;1.10;;;;;;;10.14;88.42;99237.38;5041521;28;20205;-87
2023/03/31 05:44:00;;;;;;;4.47;1.60;;;;;;;10.13;88.24;99241.00;5051988;28;20222;-87
2023/03/31 05:46:27;;;;;;;3.17;0.80;;;;;;;10.11;88.11;99240.28;5050517;28;20557;-87
2023/03/31 05:48:54;;;;;;;2.73;0.90;;;;;;;10.13;88.31;99230.38;5050208;28;20617;-87
2023/03/31 05:51:21;;;;;;;5.57;1.30;;;;;;;10.15;88.50;99235.56;5051018;28;20652;-87
2023/03/31 05:53:48;;;;;;;6.60;1.63;;;;;;;10.15;88.54;99232.91;5048760;28;20608;-87
2023/03/31 05:56:14;;;;;;;2.90;1.30;;;;;;;10.14;88.47;99228.56;5055859;28;20201;-87
2023/03/31 05:58:41;;;;;;;4.13;1.13;;;;;;;10.15;88.79;99215.13;5047785;28;20284;-87
2023/03/31 06:01:09;;;;;;;3.77;1.07;;;;;;;10.15;88.74;99212.47;5044238;28;20229;-86
2023/03/31 06:03:37;;;;;;;5.40;2.53;;;;;;;10.15;88.99;99209.81;5054209;28;20227;-87
2023/03/31 06:06:06;;;;;;;3.93;1.70;;;;;;;10.16;88.82;99195.53;5045536;28;20221;-87
2023/03/31 06:08:34;;;;;;;5.13;1.73;;;;;;;10.16;89.20;99192.88;5050732;28;20202;-87
2023/03/31 06:11:05;;;;;;;3.50;1.37;;;;;;;10.17;89.27;99196.38;5043709;28;20198;-87
2023/03/31 06:13:31;;;;;;;4.83;1.47;;;;;;;10.17;89.26;99194.56;5039386;28;20276;-86
2023/03/31 06:15:59;;;;;;;5.27;1.03;;;;;;;10.16;89.59;99190.22;5046322;28;20581;-86
2023/03/31 06:18:28;;;;;;;3.63;1.10;;;;;;;10.18;90.02;99184.75;5050047;28;20213;-87
2023/03/31 06:20:55;;;;;;;2.93;1.00;;;;;;;10.19;89.88;99183.81;5057517;28;20566;-86
2023/03/31 06:23:22;;;;;;;3.43;1.10;;;;;;;10.21;90.02;99171.22;5050866;28;20232;-87
2023/03/31 06:25:51;;;;;;;4.33;1.50;;;;;;;10.21;90.36;99172.03;5064346;28;20231;-87
2023/03/31 06:28:18;;;;;;;7.67;2.10;;;;;;;10.21;90.59;99172.03;5050952;28;20213;-87
2023/03/31 06:30:44;;;;;;;3.70;1.60;;;;;;;10.22;90.47;99172.88;5050984;28;20202;-88
2023/03/31 06:33:12;;;;;;;4.43;1.63;;;;;;;10.23;90.89;99167.44;5048583;28;20222;-87
2023/03/31 06:35:39;;;;;;;2.23;1.33;;;;;;;10.24;90.88;99176.25;5055163;28;20223;-88
2023/03/31 06:38:07;;;;;;;4.67;1.80;;;;;;;10.23;91.11;99169.25;5058311;28;20580;-87
2023/03/31 06:40:33;;;;;;;5.40;2.30;;;;;;;10.24;91.24;99169.13;5055223;28;20620;-88
2023/03/31 06:43:01;;;;;;;3.10;1.47;;;;;;;10.25;91.14;99167.31;5053797;28;20284;-87
2023/03/31 06:45:27;;;;;;;3.17;1.10;;;;;;;10.25;91.39;99170.81;5045371;28;20248;-88
2023/03/31 06:47:54;;;;;;;2.40;1.20;;;;;;;10.25;91.79;99168.16;5052960;28;20235;-86
2023/03/31 06:50:21;;;;;;;4.63;1.70;;;;;;;10.26;92.02;99167.19;5050379;28;20201;-87
2023/03/31 06:52:47;;;;;;;5.47;1.60;;;;;;;10.28;92.27;99169.72;5051567;28;20201;-86
2023/03/31 06:55:14;;;;;;;4.63;1.93;;;;;;;10.28;92.48;99167.91;5055329;28;20197;-86
2023/03/31 06:57:41;;;;;;;5.47;1.30;;;;;;;10.31;92.76;99158.81;5047047;28;20260;-86
2023/03/31 07:00:10;;;;;;;4.60;1.83;;;;;;;10.32;92.72;99161.34;5048109;28;20585;-87
2023/03/31 07:02:37;;;;;;;4.30;1.50;;;;;;;10.33;93.31;99149.72;5047339;28;20673;-86
2023/03/31 07:05:03;;;;;;;6.60;2.13;;;;;;;10.35;93.22;99145.13;5052335;28;20225;-87
2023/03/31 07:07:31;;;;;;;1.83;1.17;;;;;;;10.36;93.39;99141.50;5053702;28;20217;-87
2023/03/31 07:09:58;;;;;;;2.13;1.00;;;;;;;10.37;93.76;99140.50;5054613;28;20201;-86
2023/03/31 07:12:24;;;;;;;5.20;1.20;;;;;;;10.39;94.02;99130.56;5055034;28;20200;-86
2023/03/31 07:14:51;;;;;;;5.07;1.47;;;;;;;10.40;94.46;99120.75;5054034;28;20313;-87
2023/03/31 07:17:19;;;;;;;11.80;6.50;;;;;;;10.44;94.51;99119.50;5055342;28;20213;-87
2023/03/31 07:19:46;;;;;;;8.43;5.03;;;;;;;10.44;94.70;99124.84;5049164;28;20564;-87
2023/03/31 07:22:13;;;;;;;4.93;1.93;;;;;;;10.44;95.02;99111.53;5052888;28;20239;-87
2023/03/31 07:24:40;;;;;;;4.27;1.90;;;;;;;10.46;95.28;99124.72;5046069;28;20603;-87
2023/03/31 07:27:06;;;;;;;5.30;2.13;;;;;;;10.46;95.42;99116.72;5046136;28;20217;-87
2023/03/31 07:29:33;;;;;;;4.07;1.50;;;;;;;10.46;95.42;99114.91;5054946;28;20202;-87
2023/03/31 07:31:59;;;;;;;5.53;2.80;;;;;;;10.47;95.46;99108.59;5053727;28;20201;-87
2023/03/31 07:34:27;;;;;;;3.93;1.60;;;;;;;10.48;95.88;99101.47;5047408;28;20238;-87
2023/03/31 07:36:55;;;;;;;3.60;1.20;;;;;;;10.50;95.70;99097.69;5049788;28;20209;-87
2023/03/31 07:39:21;;;;;;;3.23;1.23;;;;;;;10.51;95.98;99103.88;5059700;28;20673;-87
2023/03/31 07:41:48;;;;;;;9.70;4.47;;;;;;;10.51;95.99;99107.38;5050345;28;20202;-86
2023/03/31 07:44:16;;;;;;;15.27;7.37;;;;;;;10.52;96.39;99094.91;5060912;28;20221;-87
2023/03/31 07:46:43;;;;;;;8.83;3.30;;;;;;;10.53;95.97;99091.25;5055631;28;20752;-87
2023/03/31 07:49:14;;;;;;;7.60;3.57;;;;;;;10.54;96.25;99084.97;5051446;28;20209;-87
2023/03/31 07:51:42;;;;;;;5.47;2.00;;;;;;;10.54;96.48;99076.97;5052313;28;20240;-87
2023/03/31 07:54:09;;;;;;;3.87;1.60;;;;;;;10.57;96.56;99076.72;5052539;28;20237;-87
2023/03/31 07:56:35;;;;;;;3.90;1.33;;;;;;;10.58;96.20;99057.06;5051043;28;20202;-87
2023/03/31 07:59:02;;;;;;;3.67;1.40;;;;;;;10.60;96.31;99055.97;5048167;28;20216;-87
2023/03/31 08:01:28;;;;;;;2.20;1.90;;;;;;;10.64;96.55;99054.72;5055412;28;20220;-87
2023/03/31 08:03:55;;;;;;;1.70;1.60;;;;;;;10.68;96.45;99056.13;5054776;28;20253;-87
2023/03/31 08:06:24;;;;;;;4.20;1.40;;;;;;;10.72;96.29;99054.06;5048138;28;20327;-87
2023/03/31 08:08:52;;;;;;;3.63;1.53;;;;;;;10.74;96.07;99054.75;5052369;28;20201;-88
2023/03/31 08:11:20;;;;;;;4.33;1.40;;;;;;;10.76;96.00;99042.97;5051869;28;20670;-87
2023/03/31 08:13:46;;;;;;;2.30;1.10;;;;;;;10.80;95.43;99054.19;5057196;28;20220;-87
2023/03/31 08:16:13;;;;;;;3.60;1.47;;;;;;;10.83;95.13;99034.44;5050964;28;20207;-87
2023/03/31 08:18:39;;;;;;;2.37;1.43;;;;;;;10.86;95.12;99034.16;5055178;28;20553;-87
2023/03/31 08:21:08;;;;;;;2.23;1.10;;;;;;;10.86;94.68;99035.00;5048344;28;20579;-87
2023/03/31 08:23:35;;;;;;;2.73;1.20;;;;;;;10.90;93.87;99015.13;5052111;28;20816;-87
2023/03/31 08:26:10;;;;;;;4.03;1.50;;;;;;;10.93;93.33;99003.31;5052616;28;20218;-87
2023/03/31 08:28:37;;;;;;;1.73;1.10;;;;;;;11.00;93.59;99007.97;5052635;28;20197;-87
2023/03/31 08:31:04;;;;;;;4.13;1.10;;;;;;;11.04;93.30;99003.19;5048808;28;20206;-87
2023/03/31 08:33:31;;;;;;;1.53;1.30;;;;;;;11.09;92.96;99000.97;5050363;28;20226;-88
2023/03/31 08:36:02;;;;;;;2.73;0.93;;;;;;;11.12;92.27;99001.50;5052756;28;20634;-87
2023/03/31 08:38:28;;;;;;;2.40;1.10;;;;;;;11.15;91.95;98997.72;5052347;28;20202;-88
2023/03/31 08:40:59;;;;;;;1.43;1.13;;;;;;;11.19;91.70;98998.28;5052678;28;20203;-87
2023/03/31 08:43:32;;;;;;;3.67;1.20;;;;;;;11.22;91.06;98987.34;5052812;28;20771;-86
2023/03/31 08:45:59;;;;;;;2.10;0.97;;;;;;;11.26;90.62;98980.75;5047077;28;20557;-87
2023/03/31 08:48:29;;;;;;;3.73;1.40;;;;;;;11.29;90.46;98983.13;5050596;28;20217;-88
2023/03/31 08:51:01;;;;;;;2.70;0.80;;;;;;;11.30;89.71;98979.47;5043250;28;20205;-87
2023/03/31 08:53:31;;;;;;;4.27;1.10;;;;;;;11.32;89.30;98967.69;5052221;28;20596;-88
2023/03/31 08:55:58;;;;;;;2.70;0.97;;;;;;;11.35;88.79;98969.22;5052163;28;20213;-87
2023/03/31 08:58:36;;;;;;;2.10;0.87;;;;;;;11.34;88.09;98965.72;5052287;28;20237;-87
2023/03/31 09:01:18;;;;;;;2.60;0.90;;;;;;;11.38;88.04;98963.63;5052376;28;20632;-87
2023/03/31 09:03:59;;;;;;;4.50;1.23;;;;;;;11.39;87.92;98963.47;5058518;28;20357;-87
2023/03/31 09:06:34;;;;;;;1.67;0.93;;;;;;;11.39;87.94;98963.47;5061779;28;20241;-87
2023/03/31 09:09:03;;;;;;;3.73;1.10;;;;;;;11.47;87.55;98970.75;5052458;28;20199;-87
2023/03/31 09:11:36;;;;;;;1.77;0.77;;;;;;;11.49;87.16;98966.09;5065348;28;20209;-87
2023/03/31 09:14:17;;;;;;;3.17;0.70;;;;;;;11.51;87.28;98966.81;5052172;28;20229;-87
2023/03/31 09:16:51;;;;;;;2.30;0.70;;;;;;;11.51;87.28;98969.47;5051917;28;20202;-87
2023/03/31 09:19:21;;;;;;;3.60;0.80;;;;;;;11.50;87.11;98962.47;5043347;28;20568;-88
2023/03/31 09:21:51;;;;;;;2.30;0.80;;;;;;;11.52;87.09;98963.16;5046634;28;20203;-87
2023/03/31 09:24:22;;;;;;;1.53;0.70;;;;;;;11.49;86.95;98966.94;5042548;28;20232;-87
2023/03/31 09:26:52;;;;;;;2.03;0.80;;;;;;;11.47;87.05;98965.41;5046839;28;20231;-88
2023/03/31 09:29:25;;;;;;;1.73;0.77;;;;;;;11.44;87.15;98955.06;5043954;28;20210;-87
2023/03/31 09:31:53;;;;;;;2.20;0.80;;;;;;;11.41;87.41;98950.84;5039741;28;20203;-87
2023/03/31 09:34:25;;;;;;;2.37;0.80;;;;;;;11.42;87.81;98941.03;5051280;28;20226;-87
2023/03/31 09:36:51;;;;;;;3.53;1.40;;;;;;;11.37;87.89;98943.28;5042125;28;20249;-87
2023/03/31 09:39:18;;;;;;;3.60;1.53;;;;;;;11.31;88.34;98944.69;5041449;28;20216;-87
2023/03/31 09:41:48;;;;;;;5.03;1.97;;;;;;;11.29;88.91;98937.81;5038260;28;20204;-86
2023/03/31 09:44:25;;;;;;;3.67;1.57;;;;;;;11.25;89.20;98936.44;5039431;28;20259;-86
2023/03/31 09:46:53;;;;;;;2.47;0.80;;;;;;;11.21;89.47;98941.19;5042482;28;20217;-86
2023/03/31 09:49:21;;;;;;;1.97;1.27;;;;;;;11.20;89.64;98946.69;5044664;28;20671;-86
2023/03/31 09:51:58;;;;;;;2.07;0.93;;;;;;;11.18;89.93;98937.97;5046250;28;20211;-86
2023/03/31 09:54:29;;;;;;;2.07;0.80;;;;;;;11.17;90.14;98933.63;5043528;28;20236;-86
2023/03/31 09:56:56;;;;;;;1.57;0.50;;;;;;;11.11;90.39;98933.22;5040145;28;20560;-87
2023/03/31 09:59:31;;;;;;;2.00;0.70;;;;;;;11.08;90.66;98930.84;5044898;28;20202;-87
2023/03/31 10:02:03;;;;;;;2.43;0.80;;;;;;;11.07;90.70;98933.66;5043463;28;20206;-86
2023/03/31 10:04:32;;;;;;;0.90;0.70;;;;;;;11.02;90.75;98919.91;5042221;28;20234;-86
2023/03/31 10:07:00;;;;;;;1.17;0.60;;;;;;;11.00;91.15;98927.19;5040856;28;20227;-86
2023/03/31 10:09:29;;;;;;;0.97;0.60;;;;;;;10.94;91.35;98917.09;5041578;28;20229;-87
2023/03/31 10:12:02;;;;;;;1.23;0.70;;;;;;;10.89;91.51;98919.38;5041336;28;20237;-86
2023/03/31 10:14:40;;;;;;;1.90;0.80;;;;;;;10.89;91.65;98916.72;5043746;28;20296;-86
2023/03/31 10:17:07;;;;;;;1.63;0.60;;;;;;;10.81;91.60;98911.22;5045806;28;20199;-87
2023/03/31 10:19:37;;;;;;;4.07;0.80;;;;;;;10.83;91.04;98919.94;5044818;28;20210;-86
2023/03/31 10:22:06;;;;;;;2.00;0.60;;;;;;;10.82;90.97;98921.75;5042121;28;20224;-86
2023/03/31 10:24:40;;;;;;;0.70;0.60;;;;;;;10.81;90.91;98913.91;5044072;28;20885;-85
2023/03/31 10:27:19;;;;;;;2.40;0.80;;;;;;;10.80;90.80;98918.38;5042711;28;20928;-86
2023/03/31 10:29:47;;;;;;;2.43;0.80;;;;;;;10.80;91.05;98926.38;5045205;28;20209;-85
2023/03/31 10:32:22;;;;;;;1.23;0.53;;;;;;;10.79;90.72;98922.88;5045939;28;20646;-85
2023/03/31 10:34:48;;;;;;;0.97;0.60;;;;;;;10.77;90.43;98913.31;5043007;28;20279;-85
2023/03/31 10:37:19;;;;;;;1.63;0.60;;;;;;;10.75;90.11;98918.78;5046521;28;20246;-86
2023/03/31 10:39:46;;;;;;;1.43;0.40;;;;;;;10.72;89.95;98912.94;5042016;28;20202;-86
2023/03/31 10:42:20;;;;;;;1.10;0.30;;;;;;;10.72;89.59;98920.91;5050061;28;20205;-85
2023/03/31 10:44:48;;;;;;;2.73;0.57;;;;;;;10.70;89.15;98913.06;5047542;28;20249;-86
2023/03/31 10:47:20;;;;;;;0.40;0.40;;;;;;;10.69;89.27;98915.88;5046558;28;20594;-86
2023/03/31 10:49:51;;;;;;;0.67;0.40;;;;;;;10.73;89.33;98906.63;5043618;28;20205;-86
2023/03/31 10:52:21;;;;;;;0.23;0.20;;;;;;;10.70;89.02;98906.91;5047823;28;20209;-85
2023/03/31 10:54:55;;;;;;;1.13;0.50;;;;;;;10.69;89.30;98910.53;5053670;28;20292;-86
2023/03/31 10:57:31;;;;;;;1.67;0.60;;;;;;;10.66;89.54;98908.16;5046352;28;20294;-86
2023/03/31 11:00:12;;;;;;;0.93;0.57;;;;;;;10.65;89.94;98903.81;5046588;28;20205;-86
2023/03/31 11:03:02;;;;;;;2.10;0.40;;;;;;;10.64;89.89;98899.47;5040175;28;20198;-86
2023/03/31 11:05:33;;;;;;;1.50;0.50;;;;;;;10.62;90.36;98902.25;5042955;28;20206;-85
2023/03/31 11:08:13;;;;;;;1.03;0.50;;;;;;;10.60;90.78;98901.56;5042445;28;20217;-86
2023/03/31 11:10:54;;;;;;;2.53;0.30;;;;;;;10.62;91.08;98901.44;5041258;28;20209;-86
2023/03/31 11:13:31;;;;;;;0.70;0.30;;;;;;;10.60;91.06;98893.56;5042221;28;20228;-85
2023/03/31 11:16:07;;;;;;;0.57;0.40;;;;;;;10.58;91.23;98897.34;5041073;28;20192;-85
2023/03/31 11:18:51;;;;;;;1.27;0.30;;;;;;;10.56;91.20;98894.03;5042916;28;20222;-85
2023/03/31 11:21:23;;;;;;;1.30;0.37;;;;;;;10.54;91.62;98891.50;5048051;28;20194;-85
2023/03/31 11:23:58;;;;;;;0.57;0.30;;;;;;;10.56;91.67;98899.34;5052245;28;20233;-85
2023/03/31 11:26:39;;;;;;;0.90;0.30;;;;;;;10.55;92.21;98889.66;5060773;28;20232;-85
2023/03/31 11:29:22;;;;;;;1.13;0.30;;;;;;;10.57;92.29;98885.06;5059574;28;20733;-86
2023/03/31 11:31:57;;;;;;;0.83;0.53;;;;;;;10.57;92.59;98885.88;5050575;28;20206;-86
2023/03/31 11:34:43;;;;;;;0.73;0.50;;;;;;;10.63;92.97;98889.78;5051338;28;20232;-87
2023/03/31 11:37:30;;;;;;;1.43;0.60;;;;;;;10.64;93.26;98888.81;5053601;28;20205;-83
2023/03/31 11:40:13;;;;;;;0.40;0.30;;;;;;;10.67;93.66;98889.38;5047552;28;20234;-83
2023/03/31 11:42:48;;;;;;;0.80;0.60;;;;;;;10.72;94.06;98875.66;5052724;28;20200;-82
2023/03/31 11:45:18;;;;;;;1.67;1.10;;;;;;;10.78;94.53;98875.06;5053828;28;20207;-83
2023/03/31 11:47:49;;;;;;;2.10;0.30;;;;;;;10.86;95.00;98877.03;5050749;28;20225;-86
2023/03/31 11:50:21;;;;;;;0.80;0.60;;;;;;;10.89;95.23;98874.09;5053658;28;20205;-86